createdAt,value
2017-04-16T00:00:09.596Z,26.63
2017-04-16T00:01:07.377Z,28.75
2017-04-16T00:02:05.976Z,28.75
2017-04-16T00:03:03.752Z,27.67
2017-04-16T00:04:02.228Z,30.78
2017-04-16T00:05:00.052Z,29.18
2017-04-16T00:07:02.048Z,24.53
2017-04-16T00:09:03.322Z,29.10
2017-04-16T00:10:01.211Z,25.53
2017-04-16T00:10:58.994Z,24.67
2017-04-16T00:11:56.887Z,28.37
2017-04-16T00:12:54.675Z,28.37
2017-04-16T00:14:55.766Z,26.47
2017-04-16T00:15:54.146Z,25.48
2017-04-16T00:16:51.998Z,24.12
2017-04-16T00:17:49.815Z,26.68
2017-04-16T00:18:47.748Z,27.03
2017-04-16T00:19:45.531Z,23.70
2017-04-16T00:20:43.316Z,27.02
2017-04-16T00:21:41.169Z,32.63
2017-04-16T00:22:38.988Z,29.65
2017-04-16T00:25:43.758Z,26.83
2017-04-16T00:26:41.570Z,28.23
2017-04-16T00:27:39.438Z,25.40
2017-04-16T00:28:37.227Z,28.00
2017-04-16T00:29:35.114Z,28.23
2017-04-16T00:30:32.997Z,27.67
2017-04-16T00:32:34.394Z,23.15
2017-04-16T00:33:32.179Z,26.02
2017-04-16T00:34:30.067Z,23.48
2017-04-16T00:35:27.880Z,23.58
2017-04-16T00:36:26.277Z,24.20
2017-04-16T00:37:24.164Z,25.12
2017-04-16T00:39:26.165Z,26.15
2017-04-16T00:40:25.258Z,28.02
2017-04-16T00:41:23.628Z,24.77
2017-04-16T00:42:21.414Z,33.23
2017-04-16T00:43:19.198Z,28.50
2017-04-16T00:44:16.986Z,25.58
2017-04-16T00:45:14.898Z,26.70
2017-04-16T00:46:12.680Z,30.38
2017-04-16T00:47:10.466Z,27.57
2017-04-16T00:48:08.251Z,28.15
2017-04-16T00:49:06.604Z,27.78
2017-04-16T00:50:04.389Z,25.07
2017-04-16T00:51:02.227Z,25.88
2017-04-16T00:52:00.010Z,27.47
2017-04-16T00:52:57.793Z,27.18
2017-04-16T00:53:55.637Z,27.05
2017-04-16T00:54:53.427Z,28.47
2017-04-16T00:55:51.206Z,24.55
2017-04-16T00:56:49.029Z,24.92
2017-04-16T00:57:46.814Z,26.88
2017-04-16T00:59:48.146Z,27.10
2017-04-16T01:00:45.997Z,23.12
2017-04-16T01:01:43.777Z,26.40
2017-04-16T01:02:41.672Z,27.32
2017-04-16T01:03:39.453Z,24.67
2017-04-16T01:04:37.234Z,26.58
2017-04-16T01:05:35.717Z,27.42
2017-04-16T01:06:34.221Z,24.07
2017-04-16T01:08:35.363Z,29.03
2017-04-16T01:09:33.220Z,22.75
2017-04-16T01:10:31.111Z,27.07
2017-04-16T01:12:33.556Z,28.12
2017-04-16T01:14:34.824Z,25.98
2017-04-16T01:16:36.863Z,27.05
2017-04-16T01:17:35.259Z,28.67
2017-04-16T01:18:33.734Z,25.47
2017-04-16T01:19:31.624Z,27.88
2017-04-16T01:20:30.101Z,28.00
2017-04-16T01:21:27.907Z,30.68
2017-04-16T01:22:25.789Z,23.68
2017-04-16T01:23:24.267Z,31.27
2017-04-16T01:24:22.108Z,25.77
2017-04-16T01:25:20.711Z,28.68
2017-04-16T01:27:22.472Z,27.82
2017-04-16T01:28:20.296Z,26.88
2017-04-16T01:29:18.074Z,26.93
2017-04-16T01:30:16.615Z,29.20
2017-04-16T01:31:14.392Z,28.02
2017-04-16T01:32:12.170Z,24.85
2017-04-16T01:33:10.635Z,25.45
2017-04-16T01:34:08.514Z,25.50
2017-04-16T01:36:09.714Z,28.98
2017-04-16T01:37:08.071Z,23.92
2017-04-16T01:38:05.853Z,26.40
2017-04-16T01:39:04.384Z,26.70
2017-04-16T01:40:02.236Z,23.00
2017-04-16T01:41:00.833Z,23.58
2017-04-16T01:41:58.617Z,24.90
2017-04-16T01:42:56.900Z,24.63
2017-04-16T01:43:54.683Z,22.42
2017-04-16T01:45:56.245Z,24.60
2017-04-16T01:46:57.920Z,22.40
2017-04-16T01:47:55.715Z,22.42
2017-04-16T01:48:53.497Z,22.10
2017-04-16T01:49:51.404Z,23.77
2017-04-16T01:50:49.194Z,28.92
2017-04-16T01:51:47.673Z,24.17
2017-04-16T01:52:45.541Z,25.15
2017-04-16T01:53:43.329Z,31.90
2017-04-16T01:54:41.713Z,27.83
2017-04-16T01:55:39.543Z,32.33
2017-04-16T01:56:37.327Z,28.82
2017-04-16T01:57:35.138Z,28.60
2017-04-16T01:58:33.551Z,28.83
2017-04-16T01:59:31.994Z,29.97
2017-04-16T02:00:30.341Z,31.00
2017-04-16T02:01:28.172Z,30.37
2017-04-16T02:02:25.958Z,27.55
2017-04-16T02:03:23.842Z,32.37
2017-04-16T02:05:25.037Z,25.72
2017-04-16T02:06:22.813Z,31.28
2017-04-16T02:07:20.593Z,39.43
2017-04-16T02:08:18.379Z,38.23
2017-04-16T02:09:16.194Z,33.78
2017-04-16T02:10:14.001Z,31.95
2017-04-16T02:11:11.836Z,34.27
2017-04-16T02:12:09.622Z,33.47
2017-04-16T02:13:08.051Z,29.67
2017-04-16T02:14:05.834Z,34.88
2017-04-16T02:16:08.532Z,29.23
2017-04-16T02:17:06.318Z,30.90
2017-04-16T02:18:04.132Z,30.52
2017-04-16T02:19:01.910Z,30.87
2017-04-16T02:20:00.349Z,29.20
2017-04-16T02:20:58.129Z,24.23
2017-04-16T02:21:56.568Z,26.38
2017-04-16T02:22:54.352Z,25.32
2017-04-16T02:23:53.188Z,24.13
2017-04-16T02:24:50.966Z,23.60
2017-04-16T02:25:48.745Z,24.22
2017-04-16T02:26:46.534Z,25.32
2017-04-16T02:27:44.350Z,26.90
2017-04-16T02:28:42.133Z,28.62
2017-04-16T02:29:39.937Z,26.12
2017-04-16T02:30:37.716Z,24.73
2017-04-16T02:31:35.497Z,23.27
2017-04-16T02:32:33.277Z,19.73
2017-04-16T02:33:31.159Z,20.50
2017-04-16T02:34:28.934Z,20.97
2017-04-16T02:35:30.289Z,21.73
2017-04-16T02:36:28.254Z,20.13
2017-04-16T02:37:26.038Z,19.82
2017-04-16T02:38:23.918Z,19.65
2017-04-16T02:39:22.349Z,21.92
2017-04-16T02:41:23.492Z,22.65
2017-04-16T02:42:21.270Z,23.25
2017-04-16T02:43:19.058Z,21.43
2017-04-16T02:44:16.894Z,19.98
2017-04-16T02:45:14.746Z,19.70
2017-04-16T02:46:13.060Z,20.63
2017-04-16T02:47:10.845Z,21.38
2017-04-16T02:48:08.631Z,19.87
2017-04-16T02:49:06.421Z,22.15
2017-04-16T02:50:04.725Z,22.18
2017-04-16T02:52:07.365Z,20.10
2017-04-16T02:53:05.742Z,20.82
2017-04-16T02:54:03.546Z,20.57
2017-04-16T02:55:01.339Z,18.63
2017-04-16T02:55:59.178Z,19.17
2017-04-16T02:56:57.629Z,19.18
2017-04-16T02:58:59.697Z,20.05
2017-04-16T02:59:58.068Z,17.47
2017-04-16T03:00:55.903Z,21.75
2017-04-16T03:04:00.477Z,18.28
2017-04-16T03:04:59.577Z,20.80
2017-04-16T03:05:57.361Z,19.00
2017-04-16T03:06:55.153Z,18.25
2017-04-16T03:07:52.937Z,19.23
2017-04-16T03:08:50.839Z,19.05
2017-04-16T03:09:48.690Z,19.97
2017-04-16T03:11:49.839Z,18.93
2017-04-16T03:12:48.250Z,17.92
2017-04-16T03:13:46.670Z,21.13
2017-04-16T03:14:44.494Z,18.23
2017-04-16T03:15:42.357Z,18.40
2017-04-16T03:16:40.134Z,19.23
2017-04-16T03:17:37.951Z,19.15
2017-04-16T03:18:35.729Z,21.30
2017-04-16T03:19:33.622Z,20.95
2017-04-16T03:20:31.435Z,19.77
2017-04-16T03:21:29.249Z,22.83
2017-04-16T03:22:28.391Z,23.40
2017-04-16T03:23:26.165Z,21.90
2017-04-16T03:24:23.950Z,21.48
2017-04-16T03:25:22.485Z,20.40
2017-04-16T03:26:26.225Z,21.35
2017-04-16T03:27:24.078Z,22.47
2017-04-16T03:28:22.453Z,21.38
2017-04-16T03:29:20.905Z,19.05
2017-04-16T03:30:18.694Z,21.07
2017-04-16T03:31:16.474Z,22.03
2017-04-16T03:32:14.255Z,22.37
2017-04-16T03:33:12.146Z,22.90
2017-04-16T03:34:10.002Z,23.28
2017-04-16T03:35:08.020Z,26.28
2017-04-16T03:36:06.423Z,21.48
2017-04-16T03:37:04.210Z,24.75
2017-04-16T03:38:02.642Z,23.42
2017-04-16T03:39:01.637Z,22.63
2017-04-16T03:39:59.500Z,23.62
2017-04-16T03:40:57.831Z,22.53
2017-04-16T03:41:55.617Z,24.97
2017-04-16T03:42:53.407Z,22.87
2017-04-16T03:43:51.290Z,27.17
2017-04-16T03:44:49.243Z,24.25
2017-04-16T03:47:54.049Z,24.65
2017-04-16T03:49:55.319Z,21.62
2017-04-16T03:50:53.849Z,21.93
2017-04-16T03:51:51.707Z,22.88
2017-04-16T03:53:53.544Z,23.97
2017-04-16T03:54:51.427Z,22.15
2017-04-16T03:55:49.290Z,20.93
2017-04-16T03:56:47.168Z,18.75
2017-04-16T03:57:45.726Z,21.62
2017-04-16T03:58:43.795Z,21.33
2017-04-16T03:59:41.616Z,20.48
2017-04-16T04:01:42.976Z,18.63
2017-04-16T04:02:40.762Z,21.18
2017-04-16T04:03:39.503Z,20.50
2017-04-16T04:04:37.353Z,19.02
2017-04-16T04:06:39.161Z,19.17
2017-04-16T04:07:36.962Z,19.10
2017-04-16T04:08:34.801Z,18.58
2017-04-16T04:09:32.606Z,17.87
2017-04-16T04:10:30.982Z,17.97
2017-04-16T04:11:28.782Z,18.80
2017-04-16T04:12:27.625Z,17.23
2017-04-16T04:13:25.442Z,19.07
2017-04-16T04:14:23.250Z,16.23
2017-04-16T04:15:21.133Z,16.60
2017-04-16T04:16:19.514Z,18.55
2017-04-16T04:17:17.323Z,15.82
2017-04-16T04:18:16.029Z,17.00
2017-04-16T04:19:13.943Z,16.28
2017-04-16T04:20:12.423Z,14.82
2017-04-16T04:21:10.204Z,18.17
2017-04-16T04:22:08.694Z,15.08
2017-04-16T04:23:07.190Z,15.95
2017-04-16T04:24:04.978Z,16.10
2017-04-16T04:25:03.458Z,15.48
2017-04-16T04:26:01.242Z,14.93
2017-04-16T04:26:59.021Z,17.98
2017-04-16T04:27:56.865Z,15.08
2017-04-16T04:28:55.203Z,14.58
2017-04-16T04:29:53.566Z,14.43
2017-04-16T04:30:51.445Z,15.03
2017-04-16T04:31:49.859Z,14.85
2017-04-16T04:32:47.732Z,13.17
2017-04-16T04:33:45.618Z,14.32
2017-04-16T04:34:43.409Z,17.40
2017-04-16T04:35:41.289Z,14.32
2017-04-16T04:36:39.152Z,15.95
2017-04-16T04:37:37.775Z,16.58
2017-04-16T04:38:36.162Z,17.28
2017-04-16T04:39:33.942Z,17.95
2017-04-16T04:40:32.229Z,20.58
2017-04-16T04:41:30.011Z,19.67
2017-04-16T04:42:27.830Z,18.80
2017-04-16T04:43:25.626Z,20.10
2017-04-16T04:44:23.469Z,19.10
2017-04-16T04:45:21.259Z,19.53
2017-04-16T04:46:19.050Z,20.08
2017-04-16T04:47:16.851Z,21.80
2017-04-16T04:48:15.255Z,19.85
2017-04-16T04:49:13.043Z,25.20
2017-04-16T04:50:10.856Z,26.28
2017-04-16T04:51:08.647Z,30.62
2017-04-16T04:52:07.219Z,35.67
2017-04-16T04:53:05.966Z,40.83
2017-04-16T04:54:04.487Z,39.97
2017-04-16T04:55:02.858Z,46.32
2017-04-16T04:56:00.642Z,47.03
2017-04-16T04:56:58.434Z,34.18
2017-04-16T04:57:56.217Z,31.52
2017-04-16T04:58:53.994Z,37.38
2017-04-16T04:59:51.906Z,35.45
2017-04-16T05:00:49.795Z,33.57
2017-04-16T05:01:48.559Z,35.28
2017-04-16T05:02:46.344Z,34.85
2017-04-16T05:03:44.137Z,40.53
2017-04-16T05:04:41.914Z,37.57
2017-04-16T05:05:39.733Z,34.30
2017-04-16T05:06:38.150Z,31.92
2017-04-16T05:07:36.031Z,33.27
2017-04-16T05:08:33.910Z,31.92
2017-04-16T05:09:31.698Z,30.32
2017-04-16T05:10:29.582Z,28.30
2017-04-16T05:11:27.387Z,32.92
2017-04-16T05:12:25.171Z,33.93
2017-04-16T05:13:22.953Z,30.72
2017-04-16T05:14:20.735Z,28.63
2017-04-16T05:15:18.915Z,26.18
2017-04-16T05:16:17.421Z,27.10
2017-04-16T05:17:15.298Z,27.08
2017-04-16T05:18:13.087Z,24.48
2017-04-16T05:19:11.530Z,26.78
2017-04-16T05:20:09.372Z,31.50
2017-04-16T05:21:07.821Z,25.67
2017-04-16T05:22:05.687Z,27.00
2017-04-16T05:23:03.573Z,28.90
2017-04-16T05:24:01.358Z,28.38
2017-04-16T05:24:59.144Z,24.78
2017-04-16T05:25:56.998Z,31.00
2017-04-16T05:26:55.951Z,29.77
2017-04-16T05:27:53.796Z,26.38
2017-04-16T05:28:52.169Z,29.45
2017-04-16T05:29:49.956Z,28.28
2017-04-16T05:30:47.762Z,29.68
2017-04-16T05:31:45.650Z,26.93
2017-04-16T05:32:43.433Z,25.42
2017-04-16T05:33:41.907Z,26.15
2017-04-16T05:34:39.714Z,24.93
2017-04-16T05:35:37.605Z,23.87
2017-04-16T05:36:35.494Z,22.03
2017-04-16T05:37:33.866Z,21.27
2017-04-16T05:38:32.238Z,23.03
2017-04-16T05:39:30.104Z,23.75
2017-04-16T05:40:28.586Z,24.78
2017-04-16T05:41:26.384Z,26.07
2017-04-16T05:42:24.193Z,26.73
2017-04-16T05:43:21.985Z,22.40
2017-04-16T05:44:19.778Z,22.02
2017-04-16T05:45:18.198Z,27.40
2017-04-16T05:46:16.018Z,23.83
2017-04-16T05:47:13.808Z,24.57
2017-04-16T05:48:11.592Z,22.97
2017-04-16T05:49:09.376Z,23.55
2017-04-16T05:50:07.754Z,24.38
2017-04-16T05:51:06.146Z,22.98
2017-04-16T05:52:03.958Z,22.75
2017-04-16T05:53:01.763Z,21.85
2017-04-16T05:53:59.550Z,19.90
2017-04-16T05:54:57.346Z,26.07
2017-04-16T05:55:55.130Z,21.67
2017-04-16T05:56:53.903Z,21.78
2017-04-16T05:57:52.275Z,22.02
2017-04-16T05:58:50.097Z,22.27
2017-04-16T05:59:47.878Z,23.97
2017-04-16T06:00:45.662Z,21.52
2017-04-16T06:01:43.513Z,21.68
2017-04-16T06:02:41.402Z,21.92
2017-04-16T06:03:39.216Z,22.98
2017-04-16T06:04:37.006Z,28.27
2017-04-16T06:05:35.582Z,24.77
2017-04-16T06:06:33.375Z,21.07
2017-04-16T06:07:31.182Z,22.32
2017-04-16T06:08:28.984Z,22.32
2017-04-16T06:09:27.402Z,24.50
2017-04-16T06:10:25.202Z,22.33
2017-04-16T06:11:22.987Z,21.40
2017-04-16T06:12:20.891Z,23.10
2017-04-16T06:13:18.790Z,23.82
2017-04-16T06:14:16.603Z,26.32
2017-04-16T06:15:14.419Z,29.22
2017-04-16T06:16:12.211Z,37.05
2017-04-16T06:17:10.015Z,29.33
2017-04-16T06:18:07.853Z,24.97
2017-04-16T06:19:08.698Z,24.87
2017-04-16T06:20:06.569Z,21.60
2017-04-16T06:21:04.451Z,23.43
2017-04-16T06:22:02.237Z,23.75
2017-04-16T06:23:00.715Z,21.68
2017-04-16T06:23:58.525Z,25.32
2017-04-16T06:24:56.341Z,22.58
2017-04-16T06:25:54.134Z,27.27
2017-04-16T06:26:51.967Z,23.30
2017-04-16T06:27:49.768Z,25.17
2017-04-16T06:28:47.579Z,26.27
2017-04-16T06:29:45.392Z,27.98
2017-04-16T06:30:43.183Z,26.50
2017-04-16T06:31:41.660Z,25.37
2017-04-16T06:32:39.546Z,24.02
2017-04-16T06:33:37.391Z,28.53
2017-04-16T06:34:35.231Z,23.07
2017-04-16T06:35:33.119Z,26.22
2017-04-16T06:36:31.496Z,24.82
2017-04-16T06:37:29.283Z,26.65
2017-04-16T06:38:27.209Z,26.07
2017-04-16T06:39:25.578Z,25.68
2017-04-16T06:40:23.368Z,27.60
2017-04-16T06:41:21.204Z,26.70
2017-04-16T06:42:19.978Z,23.73
2017-04-16T06:43:18.439Z,22.67
2017-04-16T06:44:16.275Z,22.48
2017-04-16T06:45:14.122Z,22.12
2017-04-16T06:46:11.947Z,19.35
2017-04-16T06:47:10.415Z,21.53
2017-04-16T06:48:08.200Z,22.45
2017-04-16T06:49:06.701Z,21.33
2017-04-16T06:50:04.572Z,23.38
2017-04-16T06:51:02.383Z,21.43
2017-04-16T06:52:00.183Z,18.70
2017-04-16T06:52:58.060Z,17.95
2017-04-16T06:53:55.902Z,21.68
2017-04-16T06:54:53.687Z,21.57
2017-04-16T06:55:51.511Z,21.72
2017-04-16T06:56:49.418Z,20.98
2017-04-16T06:57:47.482Z,19.62
2017-04-16T06:58:46.477Z,22.37
2017-04-16T06:59:44.536Z,16.43
2017-04-16T07:00:42.469Z,16.47
2017-04-16T07:01:40.428Z,17.57
2017-04-16T07:02:38.279Z,17.07
2017-04-16T07:03:37.203Z,19.07
2017-04-16T07:04:35.070Z,18.43
2017-04-16T07:05:33.049Z,18.15
2017-04-16T07:06:30.842Z,20.43
2017-04-16T07:07:29.323Z,18.35
2017-04-16T07:08:27.135Z,17.82
2017-04-16T07:09:24.923Z,15.95
2017-04-16T07:10:22.781Z,14.18
2017-04-16T07:11:21.155Z,14.88
2017-04-16T07:12:19.104Z,14.23
2017-04-16T07:13:16.928Z,13.62
2017-04-16T07:14:14.747Z,15.08
2017-04-16T07:15:12.546Z,15.08
2017-04-16T07:16:10.447Z,14.88
2017-04-16T07:17:08.313Z,12.83
2017-04-16T07:18:06.132Z,14.52
2017-04-16T07:19:03.958Z,11.73
2017-04-16T07:20:01.783Z,11.55
2017-04-16T07:21:01.479Z,11.13
2017-04-16T07:21:59.476Z,11.63
2017-04-16T07:22:57.373Z,9.30
2017-04-16T07:23:55.430Z,9.17
2017-04-16T07:24:53.292Z,9.30
2017-04-16T07:25:51.110Z,9.97
2017-04-16T07:26:48.978Z,8.77
2017-04-16T07:27:47.026Z,9.87
2017-04-16T07:28:44.919Z,10.28
2017-04-16T07:29:43.993Z,10.00
2017-04-16T07:30:41.950Z,9.27
2017-04-16T07:31:40.040Z,10.07
2017-04-16T07:32:38.371Z,9.65
2017-04-16T07:33:36.702Z,9.82
2017-04-16T07:34:34.725Z,9.93
2017-04-16T07:35:32.951Z,10.15
2017-04-16T07:36:31.285Z,10.07
2017-04-16T07:37:29.306Z,9.83
2017-04-16T07:38:27.525Z,11.63
2017-04-16T07:39:25.557Z,10.33
2017-04-16T07:40:23.745Z,10.22
2017-04-16T07:41:23.446Z,10.73
2017-04-16T07:42:22.799Z,10.05
2017-04-16T07:43:23.586Z,10.08
2017-04-16T07:44:23.174Z,8.93
2017-04-16T07:45:21.577Z,10.95
2017-04-16T07:46:19.760Z,10.75
2017-04-16T07:47:20.387Z,10.77
2017-04-16T07:48:19.843Z,10.10
2017-04-16T07:50:28.374Z,11.82
2017-04-16T07:51:26.705Z,12.22
2017-04-16T07:52:27.083Z,10.08
2017-04-16T07:53:26.436Z,11.82
2017-04-16T07:54:24.971Z,11.07
2017-04-16T07:55:22.892Z,11.68
2017-04-16T07:56:24.197Z,9.62
2017-04-16T07:58:27.401Z,10.73
2017-04-16T07:59:25.821Z,10.10
2017-04-16T08:00:24.576Z,13.60
2017-04-16T08:01:22.474Z,13.22
2017-04-16T08:02:26.043Z,12.92
2017-04-16T08:03:26.320Z,12.98
2017-04-16T08:04:24.548Z,14.00
2017-04-16T08:05:22.650Z,12.18
2017-04-16T08:06:20.900Z,12.95
2017-04-16T08:07:20.151Z,14.10
2017-04-16T08:08:19.504Z,12.83
2017-04-16T08:09:17.795Z,12.85
2017-04-16T08:10:16.063Z,12.38
2017-04-16T08:11:14.283Z,14.50
2017-04-16T08:12:14.109Z,12.57
2017-04-16T08:13:12.592Z,12.77
2017-04-16T08:14:10.808Z,13.37
2017-04-16T08:15:09.178Z,13.77
2017-04-16T08:16:07.254Z,12.37
2017-04-16T08:17:05.630Z,12.55
2017-04-16T08:18:06.496Z,12.33
2017-04-16T08:19:04.723Z,10.47
2017-04-16T08:20:04.437Z,12.05
2017-04-16T08:21:02.609Z,12.68
2017-04-16T08:22:00.942Z,12.62
2017-04-16T08:23:00.293Z,12.67
2017-04-16T08:23:58.624Z,14.00
2017-04-16T08:24:57.018Z,12.53
2017-04-16T08:25:55.175Z,12.67
2017-04-16T08:26:53.410Z,11.60
2017-04-16T08:27:51.535Z,11.82
2017-04-16T08:28:49.763Z,11.20
2017-04-16T08:29:47.774Z,12.73
2017-04-16T08:30:45.914Z,11.32
2017-04-16T08:31:44.962Z,13.05
2017-04-16T08:32:42.880Z,12.37
2017-04-16T08:33:41.620Z,13.53
2017-04-16T08:34:40.238Z,14.13
2017-04-16T08:35:38.179Z,14.43
2017-04-16T08:36:36.432Z,14.30
2017-04-16T08:37:36.889Z,14.25
2017-04-16T08:38:35.115Z,13.63
2017-04-16T08:39:33.239Z,15.15
2017-04-16T08:40:31.312Z,15.25
2017-04-16T08:41:30.925Z,14.77
2017-04-16T08:44:42.065Z,13.78
2017-04-16T08:45:40.107Z,14.70
2017-04-16T08:46:38.949Z,14.58
2017-04-16T08:47:37.280Z,15.50
2017-04-16T08:48:35.609Z,15.00
2017-04-16T08:49:36.027Z,13.23
2017-04-16T08:50:39.099Z,13.23
2017-04-16T08:51:37.255Z,13.18
2017-04-16T08:52:35.378Z,12.58
2017-04-16T08:53:33.671Z,12.87
2017-04-16T08:54:32.753Z,12.93
2017-04-16T08:55:31.495Z,13.08
2017-04-16T08:56:33.511Z,12.80
2017-04-16T08:57:31.841Z,13.72
2017-04-16T08:58:31.092Z,13.62
2017-04-16T08:59:31.781Z,14.68
2017-04-16T09:00:41.626Z,14.12
2017-04-16T09:01:41.230Z,12.85
2017-04-16T09:02:40.495Z,13.12
2017-04-16T09:03:39.051Z,12.17
2017-04-16T09:04:43.180Z,12.40
2017-04-16T09:05:42.122Z,12.12
2017-04-16T09:06:40.555Z,12.70
2017-04-16T09:07:38.883Z,13.37
2017-04-16T09:08:37.011Z,12.27
2017-04-16T09:09:35.443Z,12.15
2017-04-16T09:10:33.505Z,11.47
2017-04-16T09:11:31.592Z,11.67
2017-04-16T09:12:29.813Z,11.95
2017-04-16T09:13:27.947Z,11.47
2017-04-16T09:14:26.163Z,11.12
2017-04-16T09:15:24.299Z,11.93
2017-04-16T09:16:22.630Z,12.27
2017-04-16T09:17:20.960Z,12.12
2017-04-16T09:18:19.395Z,9.10
2017-04-16T09:19:17.416Z,8.97
2017-04-16T09:20:16.566Z,9.75
2017-04-16T09:21:14.793Z,11.35
2017-04-16T09:22:13.624Z,12.32
2017-04-16T09:23:11.761Z,12.25
2017-04-16T09:24:09.888Z,11.62
2017-04-16T09:25:08.093Z,10.92
2017-04-16T09:26:06.240Z,13.73
2017-04-16T09:27:04.746Z,15.80
2017-04-16T09:28:02.799Z,14.85
2017-04-16T09:29:01.130Z,16.70
2017-04-16T09:29:59.363Z,17.72
2017-04-16T09:30:57.483Z,18.55
2017-04-16T10:07:01.439Z,13.93
2017-04-16T10:07:59.819Z,10.32
2017-04-16T10:08:57.793Z,12.60
2017-04-16T10:09:56.022Z,12.27
2017-04-16T10:10:54.146Z,11.67
2017-04-16T10:11:52.273Z,10.50
2017-04-16T10:12:51.322Z,8.53
2017-04-16T10:13:49.853Z,7.25
2017-04-16T10:14:47.979Z,6.52
2017-04-16T10:15:47.027Z,5.08
2017-04-16T10:16:46.484Z,8.17
2017-04-16T10:17:44.609Z,4.80
2017-04-16T10:18:42.734Z,4.88
2017-04-16T10:20:44.410Z,4.63
2017-04-16T10:22:45.881Z,6.90
2017-04-16T10:23:45.597Z,7.03
2017-04-16T10:24:44.365Z,6.82
2017-04-16T10:25:42.713Z,7.72
2017-04-16T10:26:40.943Z,6.75
2017-04-16T10:27:39.170Z,7.02
2017-04-16T10:29:42.886Z,8.93
2017-04-16T10:30:45.826Z,9.35
2017-04-16T10:32:49.082Z,9.97
2017-04-16T10:33:51.371Z,8.88
2017-04-16T10:34:51.429Z,9.00
2017-04-16T10:35:49.965Z,8.80
2017-04-16T10:36:50.020Z,8.93
2017-04-16T10:37:50.102Z,8.60
2017-04-16T10:38:49.799Z,6.65
2017-04-16T10:40:52.666Z,7.40
2017-04-16T10:41:51.817Z,7.22
2017-04-16T10:42:51.273Z,7.33
2017-04-16T10:43:50.625Z,7.92
2017-04-16T10:44:51.109Z,7.37
2017-04-16T10:45:50.458Z,7.77
2017-04-16T10:46:51.963Z,7.87
2017-04-16T10:47:50.906Z,6.05
2017-04-16T10:48:49.544Z,6.77
2017-04-16T10:49:47.770Z,7.30
2017-04-16T10:50:46.410Z,6.73
2017-04-16T10:51:44.535Z,7.02
2017-04-16T10:52:42.659Z,6.93
2017-04-16T10:53:41.093Z,6.22
2017-04-16T10:54:39.322Z,5.58
2017-04-16T10:55:37.549Z,6.02
2017-04-16T10:56:35.673Z,6.60
2017-04-16T10:57:33.798Z,7.15
2017-04-16T10:58:31.870Z,7.02
2017-04-16T10:59:30.357Z,6.38
2017-04-16T11:01:35.197Z,6.13
2017-04-16T11:02:35.890Z,6.83
2017-04-16T11:03:34.221Z,6.18
2017-04-16T11:04:32.857Z,6.80
2017-04-16T11:05:32.518Z,6.35
2017-04-16T11:06:36.067Z,5.15
2017-04-16T11:08:40.409Z,5.75
2017-04-16T11:09:38.734Z,6.20
2017-04-16T11:10:37.065Z,6.27
2017-04-16T11:12:38.747Z,6.33
2017-04-16T11:13:40.119Z,7.18
2017-04-16T11:14:39.186Z,6.90
2017-04-16T11:15:40.791Z,5.72
2017-04-16T11:16:39.940Z,6.15
2017-04-16T11:17:38.374Z,7.00
2017-04-16T11:18:41.819Z,6.70
2017-04-16T11:19:40.667Z,6.22
2017-04-16T11:20:40.731Z,6.80
2017-04-16T11:21:38.960Z,6.28
2017-04-16T11:22:41.998Z,6.60
2017-04-16T11:23:41.557Z,6.62
2017-04-16T11:24:43.366Z,6.93
2017-04-16T11:25:44.053Z,5.90
2017-04-16T11:26:43.407Z,6.08
2017-04-16T11:27:42.963Z,5.42
2017-04-16T11:28:41.397Z,6.35
2017-04-16T11:29:39.520Z,5.78
2017-04-16T11:30:37.954Z,5.42
2017-04-16T11:31:36.181Z,6.15
2017-04-16T11:32:34.308Z,5.50
2017-04-16T11:33:32.433Z,6.03
2017-04-16T11:34:31.890Z,5.27
2017-04-16T11:35:30.118Z,4.95
2017-04-16T11:36:29.368Z,5.05
2017-04-16T11:37:27.550Z,5.58
2017-04-16T11:38:25.620Z,5.17
2017-04-16T11:39:24.360Z,5.83
2017-04-16T11:40:22.587Z,5.30
2017-04-16T11:41:21.890Z,5.65
2017-04-16T11:42:21.192Z,5.42
2017-04-16T11:43:19.320Z,5.30
2017-04-16T11:44:19.799Z,4.48
2017-04-16T11:45:18.027Z,5.38
2017-04-16T11:46:16.832Z,4.83
2017-04-16T11:47:16.412Z,5.03
2017-04-16T11:48:18.860Z,4.53
2017-04-16T11:50:20.925Z,4.95
2017-04-16T11:51:20.903Z,5.15
2017-04-16T11:52:23.979Z,5.03
2017-04-16T11:53:23.089Z,4.55
2017-04-16T11:54:22.341Z,5.07
2017-04-16T11:55:20.978Z,4.07
2017-04-16T11:56:21.048Z,10.08
2017-04-16T11:57:22.449Z,5.88
2017-04-16T11:58:23.440Z,5.57
2017-04-16T11:59:24.071Z,5.55
2017-04-16T12:01:31.530Z,4.53
2017-04-16T12:07:52.314Z,5.53
2017-04-16T12:09:58.085Z,4.80
2017-04-16T12:10:59.994Z,5.07
2017-04-16T12:22:21.659Z,3.63
2017-04-16T12:23:20.281Z,3.27
2017-04-16T12:24:19.224Z,3.00
2017-04-16T12:26:28.573Z,3.45
2017-04-16T12:27:28.030Z,2.22
2017-04-16T12:29:30.523Z,4.03
2017-04-16T12:31:36.888Z,4.57
2017-04-16T13:04:41.144Z,2.48
2017-04-16T13:05:39.066Z,4.43
2017-04-16T13:07:53.586Z,3.65
2017-04-16T13:08:52.356Z,3.35
2017-04-16T13:09:50.502Z,2.45
2017-04-16T13:10:48.458Z,3.05
2017-04-16T13:13:04.689Z,2.17
2017-04-16T13:14:02.556Z,5.90
2017-04-16T13:15:07.806Z,3.35
2017-04-16T13:16:05.848Z,2.58
2017-04-16T13:18:22.858Z,2.28
2017-04-16T13:19:21.154Z,2.27
2017-04-16T13:20:22.564Z,7.13
2017-04-16T13:21:20.997Z,2.28
2017-04-16T13:22:19.129Z,3.73
2017-04-16T13:23:18.315Z,4.60
2017-04-16T13:24:16.414Z,2.17
2017-04-16T13:25:15.230Z,3.65
2017-04-16T13:26:14.661Z,2.15
2017-04-16T13:27:12.951Z,3.52
2017-04-16T13:28:11.040Z,3.08
2017-04-16T13:29:09.286Z,5.62
2017-04-16T13:31:15.728Z,2.53
2017-04-16T13:32:13.612Z,4.17
2017-04-16T13:33:11.637Z,2.50
2017-04-16T13:56:59.883Z,1.12
2017-04-16T13:57:59.398Z,2.03
2017-04-16T13:58:58.129Z,1.27
2017-04-16T13:59:56.975Z,2.88
2017-04-16T14:00:57.843Z,3.03
2017-04-16T14:01:55.746Z,2.07
2017-04-16T14:02:53.734Z,1.53
2017-04-16T14:03:51.614Z,2.53
2017-04-16T14:04:49.637Z,5.32
2017-04-16T14:05:47.537Z,1.57
2017-04-16T14:06:45.482Z,1.50
2017-04-16T14:40:39.142Z,0.88
2017-04-16T14:45:54.808Z,4.12
2017-04-16T16:43:46.416Z,1.33
2017-04-16T16:44:45.284Z,4.82
2017-04-16T16:45:43.865Z,4.92
2017-04-16T16:46:41.737Z,1.08
2017-04-16T16:47:39.722Z,1.15
2017-04-16T16:48:37.605Z,1.55
2017-04-16T16:49:35.774Z,1.57
2017-04-16T16:50:33.875Z,2.40
2017-04-16T16:51:31.744Z,3.50
2017-04-16T16:52:31.354Z,1.17
2017-04-16T16:53:29.213Z,1.48
2017-04-16T16:54:28.207Z,1.58
2017-04-16T16:55:26.162Z,1.48
2017-04-16T17:01:43.945Z,2.12
2017-04-16T17:41:05.087Z,12.60
2017-04-16T17:42:04.211Z,19.87
2017-04-16T17:44:12.758Z,24.55
2017-04-16T17:46:21.380Z,9.78
2017-04-16T17:48:24.927Z,4.92
2017-04-16T17:49:23.484Z,4.20
2017-04-16T17:51:31.702Z,2.37
2017-04-16T17:52:33.255Z,3.58
2017-04-16T17:53:31.959Z,3.57
2017-04-16T17:54:32.392Z,3.43
2017-04-16T17:56:38.709Z,2.55
2017-04-16T17:57:37.104Z,2.27
2017-04-16T17:58:39.078Z,3.50
2017-04-16T17:59:39.398Z,2.02
2017-04-16T18:02:50.576Z,1.98
2017-04-16T18:04:55.633Z,1.93
2017-04-16T18:09:23.866Z,2.65
2017-04-16T18:10:22.636Z,2.38
2017-04-16T18:11:23.923Z,3.10
2017-04-16T18:12:24.321Z,6.28
2017-04-16T18:13:26.533Z,2.23
2017-04-16T18:14:27.762Z,4.57
2017-04-16T18:15:25.853Z,2.08
2017-04-16T18:16:27.484Z,2.28
2017-04-16T18:17:26.346Z,2.32
2017-04-16T18:18:25.163Z,3.13
2017-04-16T18:19:23.849Z,4.23
2017-04-16T18:20:22.359Z,2.62
2017-04-16T18:21:20.649Z,2.75
2017-04-16T18:22:20.176Z,2.10
2017-04-16T18:24:29.307Z,2.53
2017-04-16T18:25:28.496Z,2.67
2017-04-16T18:26:26.747Z,2.23
2017-04-16T18:28:29.571Z,5.52
2017-04-16T18:29:28.084Z,2.02
2017-04-16T18:30:26.378Z,2.57
2017-04-16T18:31:24.915Z,3.37
2017-04-16T18:33:27.570Z,4.62
2017-04-16T18:44:42.228Z,4.53
2017-04-16T18:45:40.319Z,4.12
2017-04-16T18:46:38.602Z,3.83
2017-04-16T18:51:24.854Z,3.08
2017-04-16T18:52:23.254Z,2.53
2017-04-16T18:59:56.449Z,4.22
2017-04-16T19:17:52.244Z,3.28
2017-04-16T19:18:52.681Z,3.80
2017-04-16T19:19:51.453Z,4.37
2017-04-16T19:47:15.136Z,2.67
2017-04-16T19:48:14.134Z,2.67
2017-04-16T19:49:12.307Z,1.65
2017-04-16T19:51:18.824Z,2.52
2017-04-16T19:52:17.251Z,2.53
2017-04-16T19:53:16.058Z,2.37
2017-04-16T19:54:15.933Z,2.15
2017-04-16T19:55:22.256Z,1.85
2017-04-16T19:57:25.907Z,1.85
2017-04-16T19:58:24.100Z,1.75
2017-04-16T20:01:23.127Z,2.30
2017-04-16T20:02:21.976Z,1.83
2017-04-16T20:03:19.881Z,2.08